Time;durP1;ratioP1;P1;durP2;ratioP2;P2;SDS_P1;SDS_P2;PMS_P1;PMS_P2;Temp;Humidity;BMP_temperature;BMP_pressure;BME280_temperature;BME280_humidity;BME280_pressure;Samples;Min_cycle;Max_cycle;Signal;HPM_P1;HPM_P2
2021/06/08 00:01:48;;;;;;;25.15;15.68;;;17.50;99.90;;;;;;3547738;40;20316;-84
2021/06/08 00:04:15;;;;;;;30.92;18.55;;;17.40;99.90;;;;;;3548047;40;20089;-83
2021/06/08 00:06:43;;;;;;;27.73;17.40;;;17.30;99.90;;;;;;3542237;40;20335;-86
2021/06/08 00:09:12;;;;;;;25.25;17.10;;;17.30;99.90;;;;;;3547789;40;20074;-85
2021/06/08 00:11:39;;;;;;;29.65;18.75;;;17.30;99.90;;;;;;3551989;40;20093;-85
2021/06/08 00:14:06;;;;;;;26.55;16.33;;;17.30;99.90;;;;;;3542275;40;20066;-86
2021/06/08 00:16:33;;;;;;;29.38;18.20;;;17.20;99.90;;;;;;3539059;40;20094;-86
2021/06/08 00:19:01;;;;;;;26.98;17.65;;;17.10;99.90;;;;;;3552992;40;20401;-85
2021/06/08 00:21:28;;;;;;;28.23;18.10;;;17.10;99.90;;;;;;3549551;40;20390;-84
2021/06/08 00:23:55;;;;;;;27.45;17.08;;;17.10;99.90;;;;;;3542169;40;20094;-86
2021/06/08 00:26:24;;;;;;;27.88;18.58;;;17.00;99.90;;;;;;3544376;40;20094;-85
2021/06/08 00:28:52;;;;;;;31.70;17.88;;;17.10;99.90;;;;;;3542794;40;20085;-84
2021/06/08 00:31:19;;;;;;;24.88;15.40;;;17.10;99.90;;;;;;3541124;40;20070;-85
2021/06/08 00:33:47;;;;;;;26.85;16.83;;;17.00;99.90;;;;;;3543372;40;20094;-86
2021/06/08 00:36:14;;;;;;;30.42;18.20;;;16.90;99.90;;;;;;3563718;40;20089;-86
2021/06/08 00:38:42;;;;;;;23.23;15.75;;;16.90;99.90;;;;;;3553023;40;20058;-84
2021/06/08 00:41:11;;;;;;;29.65;17.65;;;16.90;99.90;;;;;;3543986;40;20082;-85
2021/06/08 00:43:40;;;;;;;31.35;17.67;;;16.80;99.90;;;;;;3532147;40;20410;-86
2021/06/08 00:46:07;;;;;;;29.35;17.67;;;16.80;99.90;;;;;;3548684;40;20070;-85
2021/06/08 00:48:34;;;;;;;28.85;17.75;;;16.80;99.90;;;;;;3548258;40;20098;-83
2021/06/08 00:51:02;;;;;;;30.95;18.63;;;16.70;99.90;;;;;;3548711;40;20301;-84
2021/06/08 00:53:29;;;;;;;28.55;18.17;;;16.80;99.90;;;;;;3548487;40;20090;-85
2021/06/08 00:55:56;;;;;;;34.70;18.67;;;16.70;99.90;;;;;;3539580;40;20074;-84
2021/06/08 00:58:24;;;;;;;28.58;18.88;;;16.80;99.90;;;;;;3544339;40;20082;-85
2021/06/08 01:00:53;;;;;;;34.80;19.75;;;16.70;99.90;;;;;;3548118;40;20393;-85
2021/06/08 01:03:20;;;;;;;29.88;17.90;;;16.70;99.90;;;;;;3548431;40;20074;-86
2021/06/08 01:05:48;;;;;;;36.15;22.02;;;16.60;99.90;;;;;;3546454;40;20053;-84
2021/06/08 01:08:15;;;;;;;32.67;20.08;;;16.60;99.90;;;;;;3558798;40;20034;-86
2021/06/08 01:10:42;;;;;;;31.60;20.55;;;16.50;99.90;;;;;;3548333;40;20066;-85
2021/06/08 01:13:09;;;;;;;33.08;21.02;;;16.50;99.90;;;;;;3548112;40;20078;-86
2021/06/08 01:15:36;;;;;;;37.40;19.88;;;16.40;99.90;;;;;;3549994;40;20090;-86
2021/06/08 01:18:06;;;;;;;33.60;20.30;;;16.40;99.90;;;;;;3544706;40;20090;-85
2021/06/08 01:20:33;;;;;;;36.17;20.88;;;16.40;99.90;;;;;;3551696;40;20098;-85
2021/06/08 01:23:02;;;;;;;35.47;21.88;;;16.40;99.90;;;;;;3547686;40;20071;-83
2021/06/08 01:25:29;;;;;;;34.95;20.83;;;16.40;99.90;;;;;;3552315;40;20063;-86
2021/06/08 01:27:57;;;;;;;34.47;21.30;;;16.40;99.90;;;;;;3551262;40;20057;-86
2021/06/08 01:30:30;;;;;;;37.50;21.13;;;16.40;99.90;;;;;;3548951;40;20467;-84
2021/06/08 01:33:14;;;;;;;36.50;22.02;;;16.40;99.90;;;;;;3527136;40;20035;-84
2021/06/08 01:35:42;;;;;;;31.13;20.75;;;16.40;99.90;;;;;;3521895;40;20127;-84
2021/06/08 01:38:15;;;;;;;35.53;21.58;;;16.30;99.90;;;;;;3522650;40;20107;-84
2021/06/08 01:40:45;;;;;;;35.00;21.55;;;16.20;99.90;;;;;;3524693;40;20169;-85
2021/06/08 01:43:16;;;;;;;36.55;22.58;;;16.30;99.90;;;;;;3539103;40;20098;-85
2021/06/08 01:45:48;;;;;;;39.35;23.52;;;16.30;99.90;;;;;;3524545;40;20430;-84
2021/06/08 01:48:15;;;;;;;37.33;22.13;;;16.30;99.90;;;;;;3524686;40;20372;-85
2021/06/08 01:50:45;;;;;;;42.13;24.10;;;16.30;99.90;;;;;;3537576;40;20074;-85
2021/06/08 01:53:24;;;;;;;38.70;24.10;;;16.20;99.90;;;;;;3536027;40;20083;-85
2021/06/08 01:56:00;;;;;;;44.13;26.13;;;16.20;99.90;;;;;;3530063;40;20094;-83
2021/06/08 01:58:39;;;;;;;40.85;24.00;;;16.20;99.90;;;;;;3534514;40;20084;-86
2021/06/08 02:01:13;;;;;;;41.13;24.15;;;16.10;99.90;;;;;;3529342;40;20125;-83
2021/06/08 02:03:49;;;;;;;44.97;25.38;;;16.00;99.90;;;;;;3517753;40;20363;-84
2021/06/08 02:06:22;;;;;;;37.08;23.90;;;16.10;99.90;;;;;;3539649;40;20322;-85
2021/06/08 02:08:58;;;;;;;43.05;25.10;;;16.00;99.90;;;;;;3523768;40;20094;-87
2021/06/08 02:11:36;;;;;;;42.08;24.70;;;16.00;99.90;;;;;;3548686;40;20062;-83
2021/06/08 02:14:06;;;;;;;37.80;22.48;;;16.00;99.90;;;;;;3548884;40;20082;-82
2021/06/08 02:16:39;;;;;;;39.20;23.70;;;16.00;99.90;;;;;;3548680;40;20324;-86
2021/06/08 02:19:11;;;;;;;39.85;22.85;;;16.00;99.90;;;;;;3539986;40;20069;-85
2021/06/08 02:21:42;;;;;;;38.63;24.13;;;16.00;99.90;;;;;;3533539;40;20090;-83
2021/06/08 02:24:14;;;;;;;42.47;24.05;;;16.10;99.90;;;;;;3537906;40;20410;-83
2021/06/08 02:26:43;;;;;;;41.38;24.02;;;16.30;99.90;;;;;;3539322;40;20075;-83
2021/06/08 02:29:10;;;;;;;42.88;23.75;;;16.20;99.90;;;;;;3544256;40;20831;-86
2021/06/08 02:31:42;;;;;;;40.50;24.00;;;16.10;99.90;;;;;;3541919;40;20081;-84
2021/06/08 02:34:13;;;;;;;39.80;23.60;;;16.20;99.90;;;;;;3547412;40;20093;-87
2021/06/08 02:36:41;;;;;;;;;;;16.40;99.90;;;;;;3536716;40;20093;-85
2021/06/08 02:39:09;;;;;;;40.80;22.52;;;16.40;99.90;;;;;;3540332;40;19974;-85
2021/06/08 02:41:38;;;;;;;42.07;22.57;;;16.30;99.90;;;;;;3542078;40;20070;-85
2021/06/08 02:44:08;;;;;;;35.95;22.40;;;16.20;99.90;;;;;;3538742;40;20074;-84
2021/06/08 02:46:38;;;;;;;39.58;23.65;;;16.10;99.90;;;;;;3539738;40;20074;-86
2021/06/08 02:49:07;;;;;;;38.92;22.83;;;16.30;99.90;;;;;;3543403;40;20090;-85
2021/06/08 02:51:35;;;;;;;38.20;23.42;;;16.30;99.90;;;;;;3531467;40;20139;-85
2021/06/08 02:54:04;;;;;;;37.25;22.15;;;16.20;99.90;;;;;;3542795;40;20091;-85
2021/06/08 02:56:32;;;;;;;40.92;23.38;;;16.10;99.90;;;;;;3539546;40;20070;-86
2021/06/08 02:59:07;;;;;;;45.50;24.58;;;16.00;99.90;;;;;;3546702;40;20419;-85
2021/06/08 03:01:37;;;;;;;41.63;23.88;;;16.10;99.90;;;;;;3534424;40;20090;-85
2021/06/08 03:04:06;;;;;;;45.10;24.63;;;16.10;99.90;;;;;;3536412;40;20394;-85
2021/06/08 03:06:38;;;;;;;40.67;23.50;;;16.10;99.90;;;;;;3549970;40;20094;-87
2021/06/08 03:09:08;;;;;;;41.60;25.13;;;16.00;99.90;;;;;;3545480;40;20070;-86
2021/06/08 03:11:39;;;;;;;42.25;25.02;;;16.00;99.90;;;;;;3549483;40;20349;-87
2021/06/08 03:14:13;;;;;;;42.22;24.30;;;16.00;99.90;;;;;;3543419;40;20086;-86
2021/06/08 03:16:44;;;;;;;42.83;26.25;;;15.90;99.90;;;;;;3542355;40;20090;-86
2021/06/08 03:19:15;;;;;;;41.83;24.95;;;15.90;99.90;;;;;;3530572;40;20091;-84
2021/06/08 03:21:44;;;;;;;41.72;24.25;;;15.90;99.90;;;;;;3550439;40;20090;-86
2021/06/08 03:24:14;;;;;;;45.72;25.20;;;15.80;99.90;;;;;;3549826;40;20087;-87
2021/06/08 03:26:44;;;;;;;44.83;25.98;;;15.90;99.90;;;;;;3559236;40;20078;-87
2021/06/08 03:29:14;;;;;;;38.95;23.75;;;15.90;99.90;;;;;;3539870;40;20301;-87
2021/06/08 03:31:47;;;;;;;44.08;24.80;;;15.80;99.90;;;;;;3553941;40;20046;-86
2021/06/08 03:34:17;;;;;;;41.72;24.92;;;15.90;99.90;;;;;;3546448;40;20042;-85
2021/06/08 03:36:49;;;;;;;40.10;23.45;;;16.00;99.90;;;;;;3551543;40;20075;-87
2021/06/08 03:39:19;;;;;;;40.22;24.02;;;16.00;99.90;;;;;;3541878;40;20339;-86
2021/06/08 03:41:48;;;;;;;40.08;23.23;;;16.10;99.90;;;;;;3543387;40;20086;-86
2021/06/08 03:44:21;;;;;;;39.03;24.42;;;16.20;99.90;;;;;;3547628;40;20094;-85
2021/06/08 03:46:49;;;;;;;43.53;24.45;;;16.20;99.90;;;;;;3550255;40;20090;-84
2021/06/08 03:49:20;;;;;;;39.63;23.35;;;16.30;99.90;;;;;;3539261;40;20089;-84
2021/06/08 03:51:49;;;;;;;37.17;23.45;;;16.40;99.90;;;;;;3549378;40;20087;-84
2021/06/08 03:54:16;;;;;;;42.25;24.17;;;16.50;99.90;;;;;;3528757;40;20078;-84
2021/06/08 03:56:46;;;;;;;42.08;24.60;;;16.50;99.90;;;;;;3543202;40;20086;-85
2021/06/08 03:59:16;;;;;;;35.80;23.48;;;16.60;99.90;;;;;;3543139;40;20067;-85
2021/06/08 04:01:45;;;;;;;44.53;23.92;;;16.60;99.90;;;;;;3536809;40;20074;-85
2021/06/08 04:04:14;;;;;;;38.90;23.42;;;16.70;99.90;;;;;;3537023;40;20411;-86
2021/06/08 04:06:41;;;;;;;40.53;23.00;;;16.80;99.90;;;;;;3552986;40;20070;-85
2021/06/08 04:09:10;;;;;;;43.30;23.65;;;16.90;99.90;;;;;;3532323;40;20070;-85
2021/06/08 04:11:38;;;;;;;35.72;21.77;;;16.90;99.90;;;;;;3547527;40;20106;-86
2021/06/08 04:14:06;;;;;;;40.60;22.35;;;17.20;99.90;;;;;;3541072;40;20091;-84
2021/06/08 04:16:34;;;;;;;38.05;22.02;;;17.30;99.90;;;;;;3550485;40;20078;-84
2021/06/08 04:19:07;;;;;;;36.17;22.15;;;17.30;99.90;;;;;;3546776;40;20265;-85
2021/06/08 04:21:38;;;;;;;36.40;21.58;;;17.30;99.90;;;;;;3552318;40;20090;-86
2021/06/08 04:24:07;;;;;;;34.80;21.77;;;17.20;99.90;;;;;;3539656;40;20059;-86
2021/06/08 04:26:35;;;;;;;36.60;22.50;;;17.20;99.90;;;;;;3543819;40;20600;-86
2021/06/08 04:29:02;;;;;;;34.90;22.40;;;17.10;99.90;;;;;;3551919;40;20086;-84
2021/06/08 04:31:30;;;;;;;32.13;21.25;;;17.00;99.90;;;;;;3549990;40;20046;-83
2021/06/08 04:34:01;;;;;;;40.65;22.98;;;16.80;99.90;;;;;;3543647;40;20058;-85
2021/06/08 04:36:30;;;;;;;34.47;21.75;;;16.80;99.90;;;;;;3560142;40;20071;-87
2021/06/08 04:38:57;;;;;;;37.72;20.77;;;16.90;99.90;;;;;;3541998;40;20090;-87
2021/06/08 04:41:27;;;;;;;37.67;22.58;;;17.10;99.90;;;;;;3552309;40;20074;-88
2021/06/08 04:43:54;;;;;;;41.83;23.85;;;17.10;99.90;;;;;;3545825;40;20081;-85
2021/06/08 04:46:21;;;;;;;37.63;23.05;;;17.00;99.90;;;;;;3552412;40;20066;-85
2021/06/08 04:48:49;;;;;;;38.85;23.70;;;17.00;99.90;;;;;;3540125;40;20066;-86
2021/06/08 04:51:17;;;;;;;39.97;21.10;;;17.20;99.90;;;;;;3544570;40;20078;-84
2021/06/08 04:53:46;;;;;;;37.47;24.02;;;17.30;99.90;;;;;;3542807;40;20062;-85
2021/06/08 04:56:13;;;;;;;42.00;23.75;;;17.40;99.90;;;;;;3547889;40;20073;-84
2021/06/08 04:58:42;;;;;;;39.97;21.88;;;17.60;99.90;;;;;;3548892;40;20082;-84
2021/06/08 05:01:18;;;;;;;45.55;25.30;;;17.70;99.90;;;;;;3553826;40;20085;-86
2021/06/08 05:03:52;;;;;;;39.75;23.83;;;17.80;99.90;;;;;;3545298;40;20076;-86
2021/06/08 05:06:26;;;;;;;44.75;25.30;;;17.80;99.90;;;;;;3553202;40;20077;-84
2021/06/08 05:08:58;;;;;;;37.05;23.67;;;17.70;99.90;;;;;;3542675;40;20398;-86
2021/06/08 05:11:30;;;;;;;42.05;25.77;;;17.70;99.90;;;;;;3539786;40;20100;-84
2021/06/08 05:14:01;;;;;;;42.35;23.77;;;17.80;99.90;;;;;;3540842;40;20391;-85
2021/06/08 05:16:30;;;;;;;41.00;22.13;;;17.90;99.90;;;;;;3535576;40;20314;-85
2021/06/08 05:18:59;;;;;;;45.20;25.45;;;18.10;99.90;;;;;;3537910;40;20066;-84
2021/06/08 05:21:27;;;;;;;41.03;23.63;;;18.30;99.90;;;;;;3546558;40;20086;-84
2021/06/08 05:23:57;;;;;;;41.25;23.63;;;18.50;99.90;;;;;;3537781;40;20089;-85
2021/06/08 05:26:24;;;;;;;36.95;22.73;;;18.60;99.90;;;;;;3538947;40;20066;-86
2021/06/08 05:28:55;;;;;;;41.25;24.08;;;18.70;99.90;;;;;;3522513;40;20106;-87
2021/06/08 05:31:23;;;;;;;42.63;23.65;;;19.00;99.90;;;;;;3555566;40;20153;-85
2021/06/08 05:33:56;;;;;;;41.95;25.05;;;19.20;99.90;;;;;;3537290;40;20122;-85
2021/06/08 05:36:28;;;;;;;40.55;25.27;;;19.50;99.90;;;;;;3555381;40;20085;-85
2021/06/08 05:38:57;;;;;;;38.72;23.30;;;19.60;99.90;;;;;;3537597;40;20055;-84
2021/06/08 05:41:24;;;;;;;;;;;19.80;99.90;;;;;;3543044;40;20071;-85
2021/06/08 05:43:51;;;;;;;38.13;23.73;;;19.90;99.90;;;;;;3538525;40;20044;-84
2021/06/08 05:46:18;;;;;;;39.45;25.23;;;19.90;99.90;;;;;;3546636;40;20156;-85
2021/06/08 05:48:46;;;;;;;35.67;23.63;;;19.90;99.90;;;;;;3534036;40;20094;-84
2021/06/08 05:51:13;;;;;;;33.97;23.23;;;19.80;99.90;;;;;;3553443;40;20071;-84
2021/06/08 05:53:43;;;;;;;40.27;25.47;;;19.70;99.90;;;;;;3552410;40;20059;-85
2021/06/08 05:56:13;;;;;;;39.25;23.75;;;19.70;99.90;;;;;;3558446;40;20378;-85
2021/06/08 05:58:42;;;;;;;38.33;24.48;;;19.60;99.90;;;;;;3545000;40;20068;-85
2021/06/08 06:01:12;;;;;;;43.42;25.38;;;19.40;99.90;;;;;;3546480;40;20043;-86
2021/06/08 06:03:41;;;;;;;43.42;24.48;;;19.30;99.90;;;;;;3557335;40;20086;-87
2021/06/08 06:06:11;;;;;;;35.75;23.20;;;19.20;99.90;;;;;;3541337;40;20063;-83
2021/06/08 06:08:43;;;;;;;36.85;23.70;;;19.20;99.90;;;;;;3542082;40;20075;-85
2021/06/08 06:11:14;;;;;;;37.10;24.85;;;19.40;99.90;;;;;;3545813;40;20407;-86
2021/06/08 06:13:47;;;;;;;41.10;24.90;;;19.60;99.90;;;;;;3551774;40;20095;-85
2021/06/08 06:16:17;;;;;;;40.10;25.48;;;19.90;99.90;;;;;;3548738;40;20078;-85
2021/06/08 06:18:45;;;;;;;41.10;25.65;;;20.00;99.90;;;;;;3541326;40;20094;-82
2021/06/08 06:21:15;;;;;;;44.25;25.25;;;20.10;99.90;;;;;;3551847;40;20079;-86
2021/06/08 06:23:43;;;;;;;40.47;25.65;;;19.90;99.90;;;;;;3539334;40;20066;-84
2021/06/08 06:26:12;;;;;;;41.50;27.38;;;19.50;99.90;;;;;;3540067;40;20086;-86
2021/06/08 06:28:41;;;;;;;38.97;26.30;;;19.20;99.90;;;;;;3549037;40;20082;-88
2021/06/08 06:31:11;;;;;;;43.58;26.08;;;19.10;99.90;;;;;;3539260;40;20151;-83
2021/06/08 06:33:42;;;;;;;41.53;25.13;;;19.10;99.90;;;;;;3537566;40;20067;-88
2021/06/08 06:36:11;;;;;;;41.20;24.70;;;19.30;99.90;;;;;;3530183;40;20075;-85
2021/06/08 06:38:44;;;;;;;44.20;28.08;;;19.50;99.90;;;;;;3541631;40;20062;-83
2021/06/08 06:41:15;;;;;;;40.75;27.05;;;19.60;99.90;;;;;;3552208;40;20166;-85
2021/06/08 06:43:50;;;;;;;43.72;26.90;;;19.60;99.90;;;;;;3535661;40;20090;-85
2021/06/08 06:46:18;;;;;;;38.00;25.38;;;19.40;99.90;;;;;;3539333;40;20070;-84
2021/06/08 06:48:51;;;;;;;47.38;26.60;;;19.50;99.90;;;;;;3541624;40;20074;-83
2021/06/08 06:51:18;;;;;;;35.97;24.25;;;19.80;99.90;;;;;;3545098;40;20066;-84
2021/06/08 06:53:48;;;;;;;41.35;26.17;;;20.00;99.90;;;;;;3542060;40;20074;-83
2021/06/08 06:56:20;;;;;;;41.55;27.30;;;20.30;99.90;;;;;;3541440;40;20090;-84
2021/06/08 06:58:47;;;;;;;46.70;26.70;;;20.30;99.90;;;;;;3546918;40;20066;-87
2021/06/08 07:01:15;;;;;;;38.85;26.23;;;20.10;99.90;;;;;;3551896;40;20062;-84
2021/06/08 07:03:44;;;;;;;35.88;24.85;;;20.10;99.90;;;;;;3567151;40;20093;-84
2021/06/08 07:06:15;;;;;;;43.15;24.02;;;20.50;99.90;;;;;;3552588;40;20058;-84
2021/06/08 07:08:51;;;;;;;35.78;24.25;;;20.80;99.90;;;;;;3540974;40;20066;-81
2021/06/08 07:11:21;;;;;;;40.97;24.98;;;21.00;99.90;;;;;;3558123;40;20070;-79
2021/06/08 07:13:52;;;;;;;39.25;24.73;;;21.00;99.90;;;;;;3544203;40;20069;-85
2021/06/08 07:16:23;;;;;;;38.40;24.05;;;21.20;99.90;;;;;;3545992;40;20171;-83
2021/06/08 07:18:51;;;;;;;37.33;22.55;;;21.40;99.90;;;;;;3557962;40;20066;-82
2021/06/08 07:21:21;;;;;;;40.03;25.27;;;21.30;99.90;;;;;;3547216;40;20101;-84
2021/06/08 07:23:50;;;;;;;35.50;22.50;;;21.30;99.90;;;;;;3551204;40;20130;-85
2021/06/08 07:26:22;;;;;;;41.67;25.90;;;21.30;99.90;;;;;;3547790;40;20089;-86
2021/06/08 07:28:54;;;;;;;37.28;24.60;;;21.10;99.90;;;;;;3541379;40;20091;-84
2021/06/08 07:31:36;;;;;;;31.38;21.75;;;20.70;99.90;;;;;;3548099;40;20074;-84
2021/06/08 07:34:11;;;;;;;40.00;24.30;;;20.80;99.90;;;;;;3547323;40;20321;-85
2021/06/08 07:36:44;;;;;;;41.72;25.35;;;20.80;99.90;;;;;;3535964;40;20093;-83
2021/06/08 07:39:19;;;;;;;44.08;26.73;;;20.70;99.90;;;;;;3549155;40;20296;-83
2021/06/08 07:41:54;;;;;;;36.92;23.42;;;20.50;99.90;;;;;;3533640;40;20066;-84
2021/06/08 07:44:28;;;;;;;40.63;25.15;;;20.40;99.90;;;;;;3538790;40;20081;-83
2021/06/08 07:46:58;;;;;;;43.15;28.05;;;20.70;99.90;;;;;;3557370;40;20066;-83
2021/06/08 07:49:29;;;;;;;42.58;26.55;;;20.60;99.90;;;;;;3555547;40;20082;-83
2021/06/08 07:51:58;;;;;;;39.28;27.33;;;20.80;99.90;;;;;;3540370;40;20077;-83
2021/06/08 07:54:27;;;;;;;38.15;26.98;;;21.30;99.90;;;;;;3539702;40;20101;-82
2021/06/08 07:56:58;;;;;;;40.05;23.42;;;21.70;99.90;;;;;;3548276;40;20065;-82
2021/06/08 07:59:26;;;;;;;36.95;24.45;;;22.10;99.90;;;;;;3542014;40;20413;-81
2021/06/08 08:01:54;;;;;;;38.63;25.38;;;22.30;99.90;;;;;;3540713;40;20093;-83
2021/06/08 08:04:22;;;;;;;40.60;26.37;;;22.50;99.90;;;;;;3541818;40;20079;-83
2021/06/08 08:06:52;;;;;;;35.15;24.48;;;22.50;99.90;;;;;;3549086;40;20074;-82
2021/06/08 08:09:21;;;;;;;38.70;25.17;;;22.40;99.90;;;;;;3547333;40;20081;-83
2021/06/08 08:11:52;;;;;;;41.45;24.92;;;22.20;99.90;;;;;;3542022;40;20085;-83
2021/06/08 08:14:25;;;;;;;37.35;23.30;;;21.90;99.90;;;;;;3550080;40;20152;-82
2021/06/08 08:16:55;;;;;;;34.90;23.65;;;21.90;99.90;;;;;;3543251;40;20065;-81
2021/06/08 08:19:23;;;;;;;35.55;24.25;;;21.80;99.90;;;;;;3566934;40;20089;-83
2021/06/08 08:21:51;;;;;;;28.92;20.02;;;21.90;99.90;;;;;;3548315;40;20078;-81
2021/06/08 08:24:19;;;;;;;32.80;23.57;;;22.50;99.90;;;;;;3549799;40;20336;-82
2021/06/08 08:26:46;;;;;;;31.50;21.03;;;23.00;99.90;;;;;;3546542;40;20082;-82
2021/06/08 08:29:13;;;;;;;32.03;22.25;;;23.40;99.90;;;;;;3533523;40;20078;-82
2021/06/08 08:31:42;;;;;;;26.00;18.33;;;23.70;99.90;;;;;;3548349;40;20302;-84
2021/06/08 08:34:09;;;;;;;30.70;21.65;;;23.90;99.90;;;;;;3558921;40;20073;-85
2021/06/08 08:36:39;;;;;;;35.55;23.77;;;24.20;99.90;;;;;;3549521;40;20078;-82
2021/06/08 08:39:08;;;;;;;29.88;21.02;;;24.50;99.90;;;;;;3549973;40;20081;-82
2021/06/08 08:41:36;;;;;;;33.22;22.77;;;24.80;99.90;;;;;;3541048;40;20394;-84
2021/06/08 08:44:07;;;;;;;31.45;22.02;;;24.80;99.60;;;;;;3539938;40;20406;-82
2021/06/08 08:46:34;;;;;;;;;;;24.70;99.40;;;;;;3557797;40;20034;-82
2021/06/08 08:49:04;;;;;;;39.53;24.65;;;24.50;99.40;;;;;;3548007;40;19973;-82
2021/06/08 08:51:33;;;;;;;34.90;23.75;;;24.10;99.80;;;;;;3556231;40;20390;-84
2021/06/08 08:54:02;;;;;;;32.10;22.83;;;23.50;99.90;;;;;;3549159;40;20265;-82
2021/06/08 08:56:32;;;;;;;36.10;25.17;;;23.30;99.90;;;;;;3541097;40;20097;-84
2021/06/08 08:59:04;;;;;;;36.75;23.20;;;23.10;99.90;;;;;;3552251;40;20065;-83
2021/06/08 09:01:34;;;;;;;28.75;21.50;;;23.00;99.90;;;;;;3537849;40;20327;-85
2021/06/08 09:04:05;;;;;;;26.77;19.75;;;23.00;99.90;;;;;;3540801;40;20097;-84
2021/06/08 09:06:33;;;;;;;33.85;21.45;;;23.20;99.90;;;;;;3535872;40;20070;-83
2021/06/08 09:09:05;;;;;;;32.42;21.70;;;23.30;99.90;;;;;;3535653;40;20439;-83
2021/06/08 09:11:37;;;;;;;32.42;22.73;;;23.50;99.90;;;;;;3550916;40;20372;-84
2021/06/08 09:14:06;;;;;;;28.65;21.42;;;23.60;99.90;;;;;;3545220;40;20074;-84
2021/06/08 09:16:37;;;;;;;29.80;20.83;;;23.40;99.90;;;;;;3537359;40;20397;-83
2021/06/08 09:19:08;;;;;;;29.95;21.27;;;23.50;99.90;;;;;;3541966;40;20062;-84
2021/06/08 09:21:38;;;;;;;27.55;20.25;;;23.70;99.90;;;;;;3536771;40;20067;-82
2021/06/08 09:24:33;;;;;;;29.95;20.15;;;23.80;99.90;;;;;;3525513;40;20091;-83
2021/06/08 09:27:07;;;;;;;31.90;21.13;;;23.90;99.90;;;;;;3540486;40;20082;-82
2021/06/08 09:29:35;;;;;;;31.60;21.52;;;24.00;99.90;;;;;;3546159;40;20095;-83
2021/06/08 09:32:13;;;;;;;28.17;20.45;;;24.00;99.90;;;;;;3554219;40;20058;-83
2021/06/08 09:34:46;;;;;;;33.20;21.90;;;24.10;99.90;;;;;;3543224;40;20078;-80
2021/06/08 09:37:14;;;;;;;31.25;22.65;;;24.30;99.90;;;;;;3539705;40;20074;-82
2021/06/08 09:39:48;;;;;;;28.15;21.17;;;24.00;99.90;;;;;;3535381;40;20062;-82
2021/06/08 09:43:03;;;;;;;30.52;21.50;;;24.00;99.90;;;;;;3525449;40;20097;-82
2021/06/08 09:45:40;;;;;;;29.42;20.58;;;24.30;99.90;;;;;;3529987;40;20070;-82
2021/06/08 09:48:10;;;;;;;28.95;22.83;;;24.50;99.90;;;;;;3526929;40;20064;-82
2021/06/08 09:50:41;;;;;;;25.10;18.20;;;24.60;99.90;;;;;;3522000;40;20159;-82
2021/06/08 09:53:17;;;;;;;29.15;17.40;;;24.80;99.90;;;;;;3537208;40;20324;-82
2021/06/08 09:55:54;;;;;;;27.65;19.98;;;24.80;99.20;;;;;;3531439;40;20078;-82
2021/06/08 09:58:22;;;;;;;24.33;18.27;;;24.60;98.60;;;;;;3532443;40;20071;-83
2021/06/08 10:01:11;;;;;;;31.20;19.42;;;24.40;99.20;;;;;;3533030;40;20075;-85
2021/06/08 10:03:40;;;;;;;22.45;16.35;;;24.30;99.60;;;;;;3529843;40;20190;-83
2021/06/08 10:06:11;;;;;;;27.42;18.70;;;24.20;99.90;;;;;;3521321;40;20065;-81
2021/06/08 10:08:40;;;;;;;26.85;18.13;;;24.50;99.90;;;;;;3541290;40;20063;-82
2021/06/08 10:11:16;;;;;;;23.77;16.38;;;24.70;99.50;;;;;;3533944;40;20086;-81
2021/06/08 10:13:43;;;;;;;28.15;18.70;;;25.20;99.10;;;;;;3540956;40;20094;-82
2021/06/08 10:16:13;;;;;;;24.92;17.02;;;26.00;98.00;;;;;;3529525;40;20087;-82
2021/06/08 10:18:45;;;;;;;27.98;17.50;;;26.80;96.10;;;;;;3533003;40;20062;-81
2021/06/08 10:21:14;;;;;;;20.40;12.30;;;27.60;93.20;;;;;;3528350;40;20135;-85
2021/06/08 10:23:44;;;;;;;16.77;12.80;;;28.20;89.90;;;;;;3532800;40;20090;-83
2021/06/08 10:26:14;;;;;;;14.75;10.55;;;28.70;84.80;;;;;;3532346;40;20062;-84
2021/06/08 10:28:43;;;;;;;18.77;13.20;;;29.40;81.60;;;;;;3534318;40;20086;-83
2021/06/08 10:31:12;;;;;;;14.38;10.27;;;30.10;76.10;;;;;;3541169;40;20035;-83
2021/06/08 10:33:40;;;;;;;15.43;11.43;;;30.70;72.60;;;;;;3544077;40;20054;-82
2021/06/08 10:36:07;;;;;;;16.00;11.43;;;31.10;68.40;;;;;;3544793;40;20346;-84
2021/06/08 10:38:39;;;;;;;16.00;10.75;;;31.40;67.30;;;;;;3539634;40;20106;-83
2021/06/08 10:41:06;;;;;;;15.25;11.35;;;31.80;63.60;;;;;;3534634;40;20067;-83
2021/06/08 10:43:37;;;;;;;15.98;11.88;;;32.30;62.40;;;;;;3536991;40;20402;-84
2021/06/08 10:46:18;;;;;;;15.35;10.65;;;32.70;59.20;;;;;;3546065;40;20090;-82
2021/06/08 10:48:48;;;;;;;14.88;10.90;;;32.60;58.40;;;;;;3553286;40;20093;-83
2021/06/08 10:51:22;;;;;;;15.95;10.20;;;33.00;58.70;;;;;;3554726;40;20361;-84
2021/06/08 10:53:53;;;;;;;16.33;11.77;;;33.40;57.20;;;;;;3534576;40;20109;-83
2021/06/08 10:56:24;;;;;;;14.75;9.18;;;34.00;55.80;;;;;;3544640;40;20059;-86
2021/06/08 10:58:54;;;;;;;14.52;10.93;;;34.40;55.30;;;;;;3553606;40;20066;-86
2021/06/08 11:01:44;;;;;;;13.20;8.73;;;34.80;53.20;;;;;;3557553;40;20090;-85
2021/06/08 11:04:14;;;;;;;14.77;10.13;;;35.30;51.80;;;;;;3548668;40;21309;-85
2021/06/08 11:06:49;;;;;;;12.43;8.80;;;35.80;49.90;;;;;;3548797;40;20057;-86
2021/06/08 11:09:35;;;;;;;12.00;7.95;;;36.10;49.00;;;;;;3549465;40;20053;-85
2021/06/08 11:12:26;;;;;;;10.00;8.40;;;36.40;48.20;;;;;;3547465;40;20040;-85
2021/06/08 11:14:57;;;;;;;10.82;8.30;;;37.00;47.90;;;;;;3530487;40;20091;-85
2021/06/08 11:17:30;;;;;;;10.38;7.32;;;37.60;47.10;;;;;;3545076;40;20081;-84
2021/06/08 11:19:59;;;;;;;10.98;8.63;;;38.00;45.50;;;;;;3551371;40;20070;-83
2021/06/08 11:23:01;;;;;;;9.00;6.40;;;38.10;44.80;;;;;;3547796;40;20406;-83
2021/06/08 11:25:43;;;;;;;12.07;8.50;;;38.70;43.80;;;;;;3555607;40;20097;-84
2021/06/08 11:28:17;;;;;;;9.93;6.80;;;38.80;42.50;;;;;;3543304;40;20066;-83
2021/06/08 11:30:55;;;;;;;12.43;7.38;;;39.10;41.50;;;;;;3557866;40;20409;-83
2021/06/08 11:33:32;;;;;;;10.30;7.60;;;39.10;42.20;;;;;;3549634;40;20085;-84
2021/06/08 11:36:01;;;;;;;14.27;8.53;;;39.30;41.60;;;;;;3547089;40;20074;-83
2021/06/08 11:38:34;;;;;;;11.15;7.40;;;39.90;40.90;;;;;;3541152;40;20689;-83
2021/06/08 11:41:10;;;;;;;9.07;6.82;;;39.70;40.70;;;;;;3559422;40;20085;-84
2021/06/08 11:43:45;;;;;;;;;;;39.90;40.40;;;;;;3540502;40;20094;-85
2021/06/08 11:46:15;;;;;;;10.57;6.40;;;39.90;39.90;;;;;;3539164;40;19966;-83
2021/06/08 11:48:45;;;;;;;9.88;7.20;;;40.20;40.00;;;;;;3551102;40;20074;-86
2021/06/08 11:51:34;;;;;;;9.23;7.22;;;40.50;39.40;;;;;;3548362;40;20049;-84
2021/06/08 11:54:10;;;;;;;8.40;6.27;;;41.00;38.30;;;;;;3539009;40;20097;-84
2021/06/08 11:57:03;;;;;;;11.18;6.28;;;41.40;38.30;;;;;;3533692;40;20094;-85
2021/06/08 11:59:34;;;;;;;8.73;6.63;;;41.50;38.20;;;;;;3541019;40;20404;-84
2021/06/08 12:02:07;;;;;;;10.35;7.47;;;41.60;38.30;;;;;;3546666;40;20585;-82
2021/06/08 12:05:09;;;;;;;10.23;8.00;;;41.10;38.90;;;;;;3544625;40;20082;-85
2021/06/08 12:07:42;;;;;;;8.57;5.88;;;41.30;38.80;;;;;;3548433;40;20419;-85
2021/06/08 12:10:10;;;;;;;12.20;7.75;;;41.70;38.60;;;;;;3531377;40;20067;-84
2021/06/08 12:12:49;;;;;;;12.25;8.05;;;42.30;37.90;;;;;;3555188;40;20359;-86
2021/06/08 12:15:21;;;;;;;8.75;7.00;;;42.30;37.70;;;;;;3548098;40;20094;-86
2021/06/08 12:18:06;;;;;;;12.10;8.85;;;42.60;37.30;;;;;;3559763;40;20097;-86
2021/06/08 12:20:36;;;;;;;11.80;8.40;;;42.20;37.30;;;;;;3547934;40;20089;-86
2021/06/08 12:23:08;;;;;;;7.78;6.30;;;42.10;37.50;;;;;;3560372;40;20325;-85
2021/06/08 12:25:36;;;;;;;12.80;9.13;;;41.10;37.90;;;;;;3543233;40;20097;-83
2021/06/08 12:28:11;;;;;;;8.23;6.57;;;39.30;39.40;;;;;;3560582;40;20090;-85
2021/06/08 12:30:40;;;;;;;8.70;6.25;;;39.30;40.00;;;;;;3552429;40;20058;-85
2021/06/08 12:33:09;;;;;;;9.38;6.63;;;40.30;39.50;;;;;;3552101;40;20097;-84
2021/06/08 12:35:40;;;;;;;9.13;8.10;;;41.30;38.30;;;;;;3561044;40;20070;-85
2021/06/08 12:38:26;;;;;;;7.90;6.55;;;42.00;37.50;;;;;;3533054;40;20401;-84
2021/06/08 12:41:08;;;;;;;8.65;6.90;;;42.00;37.20;;;;;;3554677;40;20086;-85
2021/06/08 12:43:47;;;;;;;9.73;6.10;;;42.30;37.20;;;;;;3544801;40;20082;-84
2021/06/08 12:46:24;;;;;;;8.90;6.78;;;42.10;37.10;;;;;;3537469;40;20102;-83
2021/06/08 12:49:01;;;;;;;8.10;5.93;;;43.00;36.10;;;;;;3551750;40;20093;-84
2021/06/08 12:51:31;;;;;;;9.98;5.95;;;43.50;36.00;;;;;;3541368;40;20070;-84